Amf Ohare, Illinois
Current Conditions -  °F | °C
As of 10:38 AM on Sunday 21 Dec 2014 (Local Time) from KORD Reporting Station
Overcast Overcast  
Wind Chill: 26°   Ceiling: 2400
Heat Index: 34°   Visibility: 7mi
Dew Point: 28°   Wind: 10mph
Humidity: 79%   Direction: 170°S
Pressure: 30.17"   Gusts: NA
Location:  41.968°N, 87.8912°W
Report Text: KORD 211638Z 17009KT 7SM BKN024 OVC034 01/M02 A3017 RMK AO2 T00111022
Loading
Personal Weather Stations






























Interactive Weather Map New forecast layout! Learn more

10-Day Weather Forecast

Advertisements
Track Severe Weather on mobile